createdAt,value
2022-09-27T00:00:52.372Z,0.98
2022-09-27T00:03:38.718Z,1.70
2022-09-27T00:06:26.931Z,1.13
2022-09-27T00:09:12.545Z,1.10
2022-09-27T00:11:57.813Z,1.55
2022-09-27T00:14:43.470Z,2.33
2022-09-27T00:17:29.799Z,1.45
2022-09-27T00:20:15.010Z,1.60
2022-09-27T00:23:00.320Z,1.13
2022-09-27T00:25:59.309Z,0.98
2022-09-27T00:28:44.749Z,1.10
2022-09-27T00:31:31.168Z,1.00
2022-09-27T00:34:20.955Z,1.15
2022-09-27T00:37:07.444Z,1.13
2022-09-27T00:39:52.637Z,1.00
2022-09-27T00:42:38.227Z,1.00
2022-09-27T00:45:24.016Z,2.05
2022-09-27T00:48:15.948Z,1.33
2022-09-27T00:51:05.515Z,1.10
2022-09-27T00:53:54.192Z,1.08
2022-09-27T00:56:40.870Z,1.50
2022-09-27T00:59:40.888Z,1.35
2022-09-27T01:02:26.295Z,1.20
2022-09-27T01:05:14.249Z,1.02
2022-09-27T01:08:01.147Z,1.42
2022-09-27T01:11:15.433Z,1.40
2022-09-27T01:14:25.356Z,1.05
2022-09-27T01:18:01.693Z,1.30
2022-09-27T01:21:14.654Z,1.40
2022-09-27T01:24:19.455Z,2.33
2022-09-27T01:27:42.324Z,1.63
2022-09-27T01:30:48.021Z,1.05
2022-09-27T01:34:04.598Z,1.58
2022-09-27T01:37:38.961Z,1.38
2022-09-27T01:41:02.792Z,1.13
2022-09-27T01:46:48.865Z,1.30
2022-09-27T01:50:12.157Z,1.35
2022-09-27T01:53:05.146Z,1.38
2022-09-27T01:55:52.925Z,1.80
2022-09-27T01:59:18.568Z,0.93
2022-09-27T02:02:09.419Z,1.30
2022-09-27T02:04:59.117Z,0.85
2022-09-27T02:08:01.567Z,1.17
2022-09-27T02:10:51.418Z,1.10
2022-09-27T02:14:09.203Z,0.90
2022-09-27T02:17:05.700Z,1.48
2022-09-27T02:20:11.856Z,1.90
2022-09-27T02:23:19.340Z,1.52
2022-09-27T02:26:28.130Z,1.45
2022-09-27T02:29:27.514Z,1.48
2022-09-27T02:32:13.213Z,1.17
2022-09-27T02:35:02.763Z,1.05
2022-09-27T02:37:48.280Z,1.40
2022-09-27T02:40:37.081Z,2.25
2022-09-27T02:43:25.867Z,1.30
2022-09-27T02:46:17.088Z,1.23
2022-09-27T02:49:36.472Z,1.23
2022-09-27T02:53:09.041Z,1.40
2022-09-27T02:56:18.545Z,1.52
2022-09-27T02:59:12.750Z,1.20
2022-09-27T03:02:23.964Z,1.27
2022-09-27T03:05:16.119Z,1.63
2022-09-27T03:08:01.475Z,1.00
2022-09-27T03:10:46.665Z,1.33
2022-09-27T03:13:45.622Z,1.33
2022-09-27T03:16:39.233Z,1.20
2022-09-27T03:19:24.850Z,1.58
2022-09-27T03:22:10.115Z,1.35
2022-09-27T03:24:55.595Z,1.15
2022-09-27T03:27:41.142Z,1.50
2022-09-27T03:30:26.699Z,1.83
2022-09-27T03:33:12.462Z,1.75
2022-09-27T03:35:58.743Z,2.03
2022-09-27T03:38:44.257Z,1.10
2022-09-27T03:41:29.809Z,1.48
2022-09-27T03:44:15.290Z,1.20
2022-09-27T03:47:01.027Z,1.98
2022-09-27T03:49:46.193Z,1.30
2022-09-27T03:52:31.557Z,1.70
2022-09-27T03:55:17.245Z,1.25
2022-09-27T03:58:02.701Z,1.50
2022-09-27T04:00:49.495Z,1.60
2022-09-27T04:03:36.220Z,1.20
2022-09-27T04:06:22.963Z,1.70
2022-09-27T04:09:08.436Z,1.60
2022-09-27T04:11:53.854Z,1.55
2022-09-27T04:14:39.285Z,1.75
2022-09-27T04:17:25.725Z,2.15
2022-09-27T04:20:11.779Z,1.00
2022-09-27T04:22:57.093Z,1.20
2022-09-27T04:25:42.771Z,1.42
2022-09-27T04:28:30.132Z,1.50
2022-09-27T04:31:15.803Z,1.45
2022-09-27T04:34:01.358Z,1.58
2022-09-27T04:36:46.895Z,1.73
2022-09-27T04:39:32.355Z,1.50
2022-09-27T04:42:18.608Z,1.50
2022-09-27T04:45:04.199Z,1.65
2022-09-27T04:47:50.734Z,1.25
2022-09-27T04:50:36.654Z,1.80
2022-09-27T04:53:22.113Z,1.13
2022-09-27T04:56:07.990Z,1.15
2022-09-27T04:58:54.005Z,1.40
2022-09-27T05:01:40.132Z,1.67
2022-09-27T05:04:26.216Z,1.52
2022-09-27T05:07:11.461Z,1.13
2022-09-27T05:09:57.018Z,1.35
2022-09-27T05:12:42.659Z,1.85
2022-09-27T05:15:28.115Z,1.80
2022-09-27T05:18:13.206Z,1.63
2022-09-27T05:20:59.159Z,1.58
2022-09-27T05:23:47.291Z,2.22
2022-09-27T05:26:33.593Z,1.50
2022-09-27T05:29:19.130Z,1.45
2022-09-27T05:32:05.060Z,0.95
2022-09-27T05:34:50.567Z,1.35
2022-09-27T05:37:36.166Z,1.80
2022-09-27T05:40:42.115Z,1.38
2022-09-27T05:43:28.506Z,1.50
2022-09-27T05:46:14.155Z,2.00
2022-09-27T05:48:59.810Z,1.60
2022-09-27T05:51:45.336Z,1.50
2022-09-27T05:54:31.815Z,1.20
2022-09-27T05:57:17.239Z,1.50
2022-09-27T06:00:03.780Z,1.88
2022-09-27T06:03:01.505Z,1.63
2022-09-27T06:05:51.239Z,1.40
2022-09-27T06:08:38.604Z,2.05
2022-09-27T06:11:24.372Z,1.38
2022-09-27T06:14:10.141Z,1.38
2022-09-27T06:16:56.340Z,1.35
2022-09-27T06:19:41.843Z,1.48
2022-09-27T06:22:27.382Z,1.08
2022-09-27T06:25:13.501Z,1.42
2022-09-27T06:27:58.790Z,1.40
2022-09-27T06:30:49.478Z,2.00
2022-09-27T06:33:35.740Z,1.27
2022-09-27T06:36:20.736Z,1.10
2022-09-27T06:39:06.454Z,1.25
2022-09-27T06:41:57.750Z,1.10
2022-09-27T06:44:44.951Z,1.15
2022-09-27T06:47:39.736Z,1.15
2022-09-27T06:50:25.282Z,2.22
2022-09-27T06:53:13.260Z,1.88
2022-09-27T06:56:02.548Z,1.35
2022-09-27T06:59:06.788Z,1.40
2022-09-27T07:01:52.986Z,1.10
2022-09-27T07:04:38.689Z,0.70
2022-09-27T07:07:24.665Z,1.30
2022-09-27T07:10:11.197Z,1.55
2022-09-27T07:12:58.413Z,1.20
2022-09-27T07:15:44.186Z,1.92
2022-09-27T07:18:29.944Z,1.02
2022-09-27T07:21:16.390Z,1.05
2022-09-27T07:24:02.465Z,0.90
2022-09-27T07:26:48.423Z,1.85
2022-09-27T07:29:33.983Z,0.90
2022-09-27T07:32:19.754Z,1.48
2022-09-27T07:35:07.252Z,1.33
2022-09-27T07:37:52.915Z,1.13
2022-09-27T07:40:38.786Z,1.95
2022-09-27T07:43:24.770Z,1.23
2022-09-27T07:46:11.228Z,1.85
2022-09-27T07:48:56.786Z,1.50
2022-09-27T07:51:42.635Z,1.30
2022-09-27T07:54:28.103Z,1.27
2022-09-27T07:57:14.883Z,1.38
2022-09-27T08:00:00.561Z,1.35
2022-09-27T08:02:46.349Z,1.40
2022-09-27T08:05:31.716Z,1.70
2022-09-27T08:08:17.486Z,1.80
2022-09-27T08:11:13.730Z,1.73
2022-09-27T08:13:59.774Z,1.52
2022-09-27T08:16:45.048Z,1.30
2022-09-27T08:19:30.744Z,2.42
2022-09-27T08:22:16.638Z,2.63
2022-09-27T08:25:02.005Z,2.33
2022-09-27T08:27:56.650Z,2.30
2022-09-27T08:30:42.116Z,2.15
2022-09-27T08:33:32.363Z,1.42
2022-09-27T08:36:20.345Z,2.40
2022-09-27T08:39:09.202Z,1.70
2022-09-27T08:42:17.620Z,2.25
2022-09-27T08:45:29.087Z,4.10
2022-09-27T08:48:17.724Z,2.28
2022-09-27T08:51:06.033Z,2.13
2022-09-27T08:54:01.318Z,1.88
2022-09-27T08:56:49.365Z,2.60
2022-09-27T08:59:40.993Z,2.00
2022-09-27T09:02:27.485Z,1.95
2022-09-27T09:05:26.300Z,2.45
2022-09-27T09:08:20.354Z,1.70
2022-09-27T09:11:43.148Z,3.13
2022-09-27T09:14:53.281Z,2.10
2022-09-27T09:18:16.363Z,2.20
2022-09-27T09:21:38.168Z,3.33
2022-09-27T09:24:35.515Z,1.98
2022-09-27T09:27:27.079Z,2.13
2022-09-27T09:30:18.559Z,3.50
2022-09-27T09:33:25.271Z,2.22
2022-09-27T09:36:23.586Z,3.67
2022-09-27T09:39:20.033Z,2.28
2022-09-27T09:42:30.449Z,2.45
2022-09-27T09:45:24.369Z,2.17
2022-09-27T09:48:36.570Z,2.70
2022-09-27T09:51:27.434Z,2.17
2022-09-27T09:54:35.217Z,2.42
2022-09-27T09:57:31.013Z,1.48
2022-09-27T10:00:18.994Z,2.53
2022-09-27T10:03:04.791Z,2.13
2022-09-27T10:05:50.459Z,2.47
2022-09-27T10:08:36.003Z,2.13
2022-09-27T10:11:40.919Z,2.65
2022-09-27T10:14:27.929Z,2.95
2022-09-27T10:17:18.386Z,2.33
2022-09-27T10:20:06.990Z,2.05
2022-09-27T10:22:55.640Z,2.65
2022-09-27T10:25:50.476Z,2.47
2022-09-27T10:28:43.534Z,3.05
2022-09-27T10:31:37.244Z,1.80
2022-09-27T10:34:35.685Z,2.10
2022-09-27T10:37:23.202Z,1.73
2022-09-27T10:40:41.320Z,2.05
2022-09-27T10:43:31.922Z,2.30
2022-09-27T10:46:31.266Z,2.53
2022-09-27T10:49:22.711Z,2.20
2022-09-27T10:52:14.535Z,1.75
2022-09-27T10:55:19.592Z,2.47
2022-09-27T10:58:05.095Z,2.35
2022-09-27T11:01:07.951Z,2.22
2022-09-27T11:03:58.213Z,2.15
2022-09-27T11:06:43.941Z,2.70
2022-09-27T11:09:29.971Z,2.03
2022-09-27T11:12:18.324Z,2.30
2022-09-27T11:15:16.165Z,2.30
2022-09-27T11:18:14.456Z,2.90
2022-09-27T11:21:21.846Z,1.90
2022-09-27T11:24:36.540Z,2.70
2022-09-27T11:27:37.357Z,2.20
2022-09-27T11:30:24.524Z,2.28
2022-09-27T11:33:35.117Z,2.08
2022-09-27T11:36:31.614Z,2.10
2022-09-27T11:39:26.174Z,2.28
2022-09-27T11:42:28.010Z,2.17
2022-09-27T11:49:13.480Z,1.90
2022-09-27T11:52:05.226Z,1.75
2022-09-27T11:54:59.645Z,2.20
2022-09-27T11:57:48.742Z,1.98
2022-09-27T12:01:09.096Z,1.98
2022-09-27T12:04:05.622Z,1.10
2022-09-27T12:07:11.335Z,1.60
2022-09-27T12:10:03.170Z,1.10
2022-09-27T12:12:53.937Z,1.33
2022-09-27T12:15:43.959Z,1.30
2022-09-27T12:18:35.463Z,1.13
2022-09-27T12:21:21.787Z,1.40
2022-09-27T12:24:11.402Z,1.88
2022-09-27T12:27:03.839Z,1.52
2022-09-27T12:29:51.128Z,1.63
2022-09-27T12:33:02.369Z,1.33
2022-09-27T12:35:53.755Z,1.38
2022-09-27T12:39:01.959Z,1.90
2022-09-27T12:42:01.981Z,1.50
2022-09-27T12:44:51.562Z,2.15
2022-09-27T12:47:55.594Z,1.42
2022-09-27T12:50:55.046Z,0.90
2022-09-27T12:54:15.343Z,1.42
2022-09-27T12:57:15.836Z,1.30
2022-09-27T13:00:17.693Z,1.63
2022-09-27T13:03:16.807Z,1.15
2022-09-27T13:06:39.213Z,1.20
2022-09-27T13:09:37.579Z,0.95
2022-09-27T13:12:28.012Z,1.02
2022-09-27T13:15:25.460Z,1.40
2022-09-27T13:18:29.483Z,1.50
2022-09-27T13:21:50.051Z,0.80
2022-09-27T13:24:41.490Z,1.08
2022-09-27T13:27:30.185Z,1.35
2022-09-27T13:30:16.522Z,1.48
2022-09-27T13:33:17.032Z,0.75
2022-09-27T13:36:21.629Z,1.30
2022-09-27T13:39:14.159Z,1.50
2022-09-27T13:42:09.601Z,1.13
2022-09-27T13:45:16.917Z,2.70
2022-09-27T13:48:14.293Z,1.42
2022-09-27T13:51:18.930Z,0.98
2022-09-27T13:54:27.247Z,1.30
2022-09-27T13:57:37.783Z,1.60
2022-09-27T14:00:27.860Z,2.13
2022-09-27T14:03:15.501Z,1.50
2022-09-27T14:06:08.612Z,1.40
2022-09-27T14:08:58.578Z,1.27
2022-09-27T14:11:49.112Z,1.67
2022-09-27T14:14:36.474Z,1.33
2022-09-27T14:17:22.884Z,1.40
2022-09-27T14:20:33.016Z,1.08
2022-09-27T14:23:25.416Z,1.70
2022-09-27T14:26:25.984Z,1.65
2022-09-27T14:29:22.623Z,0.98
2022-09-27T14:32:13.886Z,1.20
2022-09-27T14:35:48.927Z,1.23
2022-09-27T14:38:39.126Z,1.25
2022-09-27T14:41:26.831Z,1.05
2022-09-27T14:44:16.623Z,1.48
2022-09-27T14:47:23.624Z,1.08
2022-09-27T14:50:25.043Z,0.98
2022-09-27T14:53:24.056Z,1.17
2022-09-27T14:56:22.592Z,1.17
2022-09-27T14:59:14.804Z,1.35
2022-09-27T15:02:04.620Z,1.52
2022-09-27T15:04:51.788Z,1.10
2022-09-27T15:07:43.171Z,1.08
2022-09-27T15:10:33.453Z,1.13
2022-09-27T15:13:19.552Z,1.30
2022-09-27T15:16:18.918Z,1.20
2022-09-27T15:19:29.042Z,1.30
2022-09-27T15:22:34.811Z,1.00
2022-09-27T15:25:36.682Z,1.20
2022-09-27T15:28:22.226Z,1.30
2022-09-27T15:31:08.045Z,1.20
2022-09-27T15:33:56.184Z,1.33
2022-09-27T15:37:03.469Z,1.30
2022-09-27T15:39:52.285Z,1.40
2022-09-27T15:42:58.133Z,1.85
2022-09-27T15:45:50.485Z,1.02
2022-09-27T15:48:37.696Z,1.20
2022-09-27T15:51:49.807Z,1.13
2022-09-27T15:54:36.395Z,1.20
2022-09-27T15:57:21.988Z,1.20
2022-09-27T16:00:18.824Z,1.10
2022-09-27T16:03:04.529Z,1.45
2022-09-27T16:05:49.822Z,1.00
2022-09-27T16:08:35.315Z,2.03
2022-09-27T16:11:21.009Z,1.42
2022-09-27T16:14:07.575Z,1.20
2022-09-27T16:16:59.253Z,1.17
2022-09-27T16:19:44.945Z,1.83
2022-09-27T16:22:30.591Z,2.00
2022-09-27T16:25:16.266Z,1.98
2022-09-27T16:28:03.241Z,1.45
2022-09-27T16:30:48.745Z,1.50
2022-09-27T16:33:34.517Z,2.28
2022-09-27T16:36:20.772Z,1.45
2022-09-27T16:39:10.572Z,1.40
2022-09-27T16:41:55.944Z,1.13
2022-09-27T16:44:41.527Z,1.00
2022-09-27T16:47:29.942Z,1.38
2022-09-27T16:50:34.206Z,1.20
2022-09-27T16:53:19.875Z,1.67
2022-09-27T16:56:05.490Z,1.40
2022-09-27T16:58:50.878Z,1.98
2022-09-27T17:01:36.590Z,1.58
2022-09-27T17:04:22.994Z,1.38
2022-09-27T17:07:08.601Z,1.77
2022-09-27T17:09:54.603Z,2.88
2022-09-27T17:12:40.198Z,1.45
2022-09-27T17:15:25.938Z,1.80
2022-09-27T17:18:12.417Z,1.63
2022-09-27T17:21:03.550Z,1.90
2022-09-27T17:23:53.555Z,2.25
2022-09-27T17:26:44.952Z,1.70
2022-09-27T17:29:31.885Z,1.67
2022-09-27T17:32:17.654Z,1.60
2022-09-27T17:35:03.557Z,1.48
2022-09-27T17:37:48.934Z,1.67
2022-09-27T17:40:34.893Z,1.60
2022-09-27T17:43:24.297Z,2.05
2022-09-27T17:46:10.733Z,1.90
2022-09-27T17:49:15.342Z,1.95
2022-09-27T17:52:01.295Z,2.08
2022-09-27T17:54:46.648Z,1.88
2022-09-27T17:57:32.059Z,2.10
2022-09-27T18:00:18.815Z,2.20
2022-09-27T18:03:04.186Z,1.95
2022-09-27T18:05:49.896Z,2.40
2022-09-27T18:08:35.561Z,2.33
2022-09-27T18:11:27.680Z,2.20
2022-09-27T18:14:13.055Z,2.03
2022-09-27T18:16:58.626Z,2.00
2022-09-27T18:19:43.902Z,2.40
2022-09-27T18:22:31.284Z,2.28
2022-09-27T18:25:16.713Z,2.25
2022-09-27T18:28:03.263Z,2.60
2022-09-27T18:30:50.096Z,2.20
2022-09-27T18:33:36.516Z,2.20
2022-09-27T18:36:25.158Z,1.95
2022-09-27T18:39:12.709Z,3.40
2022-09-27T18:41:57.982Z,2.28
2022-09-27T18:44:43.366Z,2.50
2022-09-27T18:47:29.469Z,2.45
2022-09-27T18:50:15.114Z,3.70
2022-09-27T18:53:00.594Z,3.20
2022-09-27T18:55:46.087Z,2.08
2022-09-27T18:58:33.352Z,2.30
2022-09-27T19:01:19.847Z,2.28
2022-09-27T19:04:09.937Z,2.10
2022-09-27T19:06:56.850Z,2.55
2022-09-27T19:09:42.279Z,2.30
2022-09-27T19:12:28.108Z,3.65
2022-09-27T19:15:13.557Z,2.80
2022-09-27T19:17:59.215Z,3.35
2022-09-27T19:20:44.627Z,3.17
2022-09-27T19:23:31.036Z,3.00
2022-09-27T19:26:23.342Z,3.25
2022-09-27T19:29:08.852Z,3.17
2022-09-27T19:31:54.638Z,2.78
2022-09-27T19:34:39.917Z,3.42
2022-09-27T19:37:25.387Z,2.78
2022-09-27T19:40:13.085Z,2.45
2022-09-27T19:43:02.413Z,2.00
2022-09-27T19:45:47.934Z,3.45
2022-09-27T19:48:36.925Z,2.80
2022-09-27T19:51:27.624Z,2.53
2022-09-27T19:54:13.560Z,2.63
2022-09-27T19:56:58.786Z,2.83
2022-09-27T19:59:44.700Z,2.55
2022-09-27T20:02:30.461Z,2.40
2022-09-27T20:05:16.220Z,2.58
2022-09-27T20:08:07.916Z,2.45
2022-09-27T20:11:06.147Z,1.80
2022-09-27T20:13:58.685Z,3.00
2022-09-27T20:16:44.234Z,1.92
2022-09-27T20:19:29.632Z,2.17
2022-09-27T20:22:15.033Z,1.75
2022-09-27T20:25:03.466Z,2.40
2022-09-27T20:27:52.128Z,2.28
2022-09-27T20:30:37.602Z,2.15
2022-09-27T20:33:41.496Z,2.35
2022-09-27T20:36:40.734Z,4.43
2022-09-27T20:39:26.314Z,2.33
2022-09-27T20:42:12.036Z,3.42
2022-09-27T20:44:57.543Z,2.25
2022-09-27T20:47:43.294Z,3.47
2022-09-27T20:50:29.200Z,2.53
2022-09-27T20:53:14.616Z,2.83
2022-09-27T20:56:05.106Z,2.22
2022-09-27T20:58:53.565Z,2.50
2022-09-27T21:01:45.645Z,4.30
2022-09-27T21:04:32.041Z,2.20
2022-09-27T21:07:17.314Z,3.72
2022-09-27T21:10:02.828Z,3.40
2022-09-27T21:12:48.739Z,2.63
2022-09-27T21:15:34.156Z,2.72
2022-09-27T21:18:20.636Z,2.95
2022-09-27T21:21:09.483Z,3.33
2022-09-27T21:23:57.884Z,3.03
2022-09-27T21:26:43.258Z,3.92
2022-09-27T21:29:28.709Z,4.43
2022-09-27T21:32:14.393Z,3.30
2022-09-27T21:34:59.726Z,2.60
2022-09-27T21:37:47.446Z,2.83
2022-09-27T21:40:33.938Z,3.88
2022-09-27T21:43:19.262Z,3.30
2022-09-27T21:46:09.482Z,3.00
2022-09-27T21:48:57.463Z,3.47
2022-09-27T21:51:44.518Z,2.65
2022-09-27T21:54:29.834Z,4.25
2022-09-27T21:57:15.356Z,3.40
2022-09-27T22:00:01.036Z,2.78
2022-09-27T22:02:46.176Z,3.08
2022-09-27T22:05:31.777Z,2.88
2022-09-27T22:08:18.579Z,2.60
2022-09-27T22:11:04.766Z,2.65
2022-09-27T22:13:50.276Z,3.60
2022-09-27T22:16:35.906Z,2.85
2022-09-27T22:19:21.691Z,3.40
2022-09-27T22:22:07.046Z,3.00
2022-09-27T22:24:52.584Z,2.20
2022-09-27T22:27:37.994Z,2.40
2022-09-27T22:30:23.822Z,2.85
2022-09-27T22:33:09.179Z,2.70
2022-09-27T22:35:54.419Z,3.20
2022-09-27T22:38:39.916Z,2.80
2022-09-27T22:41:25.356Z,2.22
2022-09-27T22:44:11.035Z,2.88
2022-09-27T22:46:56.481Z,2.95
2022-09-27T22:49:42.069Z,1.98
2022-09-27T22:52:27.742Z,2.63
2022-09-27T22:55:13.059Z,2.10
2022-09-27T22:57:58.471Z,2.22
2022-09-27T23:00:45.395Z,4.47
2022-09-27T23:03:31.056Z,2.40
2022-09-27T23:06:18.807Z,2.47
2022-09-27T23:09:04.096Z,2.80
2022-09-27T23:11:49.624Z,2.13
2022-09-27T23:14:38.172Z,2.47
2022-09-27T23:17:25.734Z,2.72
2022-09-27T23:20:14.350Z,2.78
2022-09-27T23:22:59.720Z,2.70
2022-09-27T23:25:45.499Z,2.45
2022-09-27T23:28:32.224Z,3.53
2022-09-27T23:31:18.802Z,3.35
2022-09-27T23:34:04.959Z,2.30
2022-09-27T23:36:50.535Z,2.53
2022-09-27T23:39:36.153Z,2.15
2022-09-27T23:42:22.054Z,2.20
2022-09-27T23:45:08.609Z,1.90
2022-09-27T23:47:57.626Z,2.17
2022-09-27T23:50:44.356Z,2.30
2022-09-27T23:53:29.789Z,1.92
2022-09-27T23:56:17.398Z,2.53
2022-09-27T23:59:02.861Z,3.08
